Time;durP1;ratioP1;P1;durP2;ratioP2;P2;SDS_P1;SDS_P2;PMS_P1;PMS_P2;Temp;Humidity;BMP_temperature;BMP_pressure;BME280_temperature;BME280_humidity;BME280_pressure;Samples;Min_cycle;Max_cycle;Signal;HPM_P1;HPM_P2
2022/12/19 00:00:07;;;;;;;90.65;23.92;;;;;;;;;;5071639;28;20685;-72
2022/12/19 00:02:34;;;;;;;100.97;26.50;;;;;;;;;;5072236;28;20719;-73
2022/12/19 00:05:01;;;;;;;91.30;24.58;;;;;;;;;;5072206;28;20205;-72
2022/12/19 00:07:28;;;;;;;97.90;24.23;;;;;;;;;;5072060;28;20201;-73
2022/12/19 00:09:55;;;;;;;94.07;23.05;;;;;;;;;;5071316;28;20785;-72
2022/12/19 00:12:23;;;;;;;91.32;23.90;;;;;;;;;;5071735;28;20221;-72
2022/12/19 00:14:51;;;;;;;93.45;24.60;;;;;;;;;;5071893;28;20665;-72
2022/12/19 00:17:18;;;;;;;101.35;24.08;;;;;;;;;;5072178;28;20602;-72
2022/12/19 00:19:45;;;;;;;98.85;24.00;;;;;;;;;;5071054;28;20209;-72
2022/12/19 00:22:12;;;;;;;95.57;24.15;;;;;;;;;;5071767;28;20674;-72
2022/12/19 00:24:39;;;;;;;94.57;24.45;;;;;;;;;;5071745;28;20209;-72
2022/12/19 00:27:07;;;;;;;93.68;23.90;;;;;;;;;;5071904;28;20212;-72
2022/12/19 00:29:34;;;;;;;92.38;23.45;;;;;;;;;;5070967;28;20700;-71
2022/12/19 00:32:02;;;;;;;97.47;24.15;;;;;;;;;;5071746;28;20295;-72
2022/12/19 00:34:29;;;;;;;92.68;23.75;;;;;;;;;;5071807;28;20620;-72
2022/12/19 00:36:56;;;;;;;97.53;25.55;;;;;;;;;;5071735;28;20205;-72
2022/12/19 00:39:23;;;;;;;98.47;25.33;;;;;;;;;;5070867;28;20201;-71
2022/12/19 00:41:50;;;;;;;93.63;24.27;;;;;;;;;;5077720;28;20728;-72
2022/12/19 00:44:17;;;;;;;97.68;25.27;;;;;;;;;;5078437;28;20197;-72
2022/12/19 00:46:45;;;;;;;90.43;22.00;;;;;;;;;;5078392;28;20209;-72
2022/12/19 00:49:14;;;;;;;91.55;24.20;;;;;;;;;;5077510;28;20201;-72
2022/12/19 00:51:41;;;;;;;96.80;24.58;;;;;;;;;;5078160;28;20227;-72
2022/12/19 00:54:08;;;;;;;95.60;23.98;;;;;;;;;;5077872;28;20221;-71
2022/12/19 00:56:36;;;;;;;93.38;22.80;;;;;;;;;;5078308;28;20578;-72
2022/12/19 00:59:03;;;;;;;89.50;20.83;;;;;;;;;;5077537;28;20201;-73
2022/12/19 01:01:32;;;;;;;92.80;22.25;;;;;;;;;;5078183;28;20255;-72
2022/12/19 01:03:59;;;;;;;91.57;21.70;;;;;;;;;;5078250;28;20309;-72
2022/12/19 01:06:28;;;;;;;92.82;24.63;;;;;;;;;;5078003;28;20207;-71
2022/12/19 01:08:55;;;;;;;94.35;23.25;;;;;;;;;;5077406;28;20245;-72
2022/12/19 01:12:44;;;;;;;90.95;22.10;;;;;;;;;;5077883;28;20229;-72
2022/12/19 01:14:09;;;;;;;89.68;20.73;;;;;;;;;;5077758;28;20239;-72
2022/12/19 01:16:36;;;;;;;88.80;21.58;;;;;;;;;;5078047;28;20232;-72
2022/12/19 01:19:03;;;;;;;96.80;23.35;;;;;;;;;;5077131;28;20208;-72
2022/12/19 01:21:31;;;;;;;88.75;22.58;;;;;;;;;;5077752;28;20225;-73
2022/12/19 01:23:58;;;;;;;97.15;20.95;;;;;;;;;;5078061;28;20201;-73
2022/12/19 01:26:25;;;;;;;94.82;23.27;;;;;;;;;;5077744;28;20730;-72
2022/12/19 01:28:53;;;;;;;88.13;21.25;;;;;;;;;;5077282;28;20484;-72
2022/12/19 01:31:20;;;;;;;90.20;20.73;;;;;;;;;;5077980;28;20232;-72
2022/12/19 01:33:47;;;;;;;86.15;21.15;;;;;;;;;;5077637;28;20235;-73
2022/12/19 01:36:14;;;;;;;94.70;19.58;;;;;;;;;;5077693;28;20205;-72
2022/12/19 01:38:42;;;;;;;92.15;21.92;;;;;;;;;;5076797;28;20212;-71
2022/12/19 01:41:11;;;;;;;92.78;22.48;;;;;;;;;;5077779;28;20221;-72
2022/12/19 01:43:53;;;;;;;93.00;22.25;;;;;;;;;;5077820;28;20201;-72
2022/12/19 01:46:23;;;;;;;89.95;21.15;;;;;;;;;;5077695;28;20695;-72
2022/12/19 01:48:50;;;;;;;88.13;21.63;;;;;;;;;;5077094;28;20685;-72
2022/12/19 01:51:20;;;;;;;92.90;22.63;;;;;;;;;;5077048;28;20225;-71
2022/12/19 01:53:50;;;;;;;90.40;21.63;;;;;;;;;;5074016;28;20231;-73
2022/12/19 01:56:18;;;;;;;91.15;21.58;;;;;;;;;;5074652;28;20378;-72
2022/12/19 01:58:46;;;;;;;92.75;21.98;;;;;;;;;;5073564;28;20205;-72
2022/12/19 02:01:13;;;;;;;95.57;21.02;;;;;;;;;;5074505;28;20239;-72
2022/12/19 02:03:41;;;;;;;95.57;23.00;;;;;;;;;;5074630;28;20209;-72
2022/12/19 02:06:08;;;;;;;90.05;20.95;;;;;;;;;;5074403;28;20202;-72
2022/12/19 02:08:36;;;;;;;88.63;19.92;;;;;;;;;;5073654;28;20459;-73
2022/12/19 02:11:05;;;;;;;94.35;21.45;;;;;;;;;;5074234;28;20231;-73
2022/12/19 02:13:32;;;;;;;89.45;21.50;;;;;;;;;;5074080;28;20233;-72
2022/12/19 02:16:03;;;;;;;87.60;20.50;;;;;;;;;;5074323;28;20578;-72
2022/12/19 02:18:36;;;;;;;87.10;18.50;;;;;;;;;;5073861;28;20236;-72
2022/12/19 02:21:10;;;;;;;91.50;21.17;;;;;;;;;;5074051;28;20229;-72
2022/12/19 02:23:58;;;;;;;92.45;21.00;;;;;;;;;;5073999;28;20196;-72
2022/12/19 02:26:43;;;;;;;88.93;21.58;;;;;;;;;;5069117;28;20213;-72
2022/12/19 02:29:28;;;;;;;91.00;22.52;;;;;;;;;;5073267;28;20267;-72
2022/12/19 02:31:59;;;;;;;93.63;21.05;;;;;;;;;;5059949;28;20225;-72
2022/12/19 02:34:30;;;;;;;87.43;20.38;;;;;;;;;;5073959;28;20235;-72
2022/12/19 02:37:01;;;;;;;90.93;21.52;;;;;;;;;;5073851;28;20604;-72
2022/12/19 02:39:32;;;;;;;88.88;20.88;;;;;;;;;;5072830;28;20209;-72
2022/12/19 02:42:00;;;;;;;95.00;24.02;;;;;;;;;;5073917;28;20226;-72
2022/12/19 02:44:31;;;;;;;101.97;23.48;;;;;;;;;;5073830;28;20201;-74
2022/12/19 02:47:01;;;;;;;91.18;21.67;;;;;;;;;;5073591;28;20211;-74
2022/12/19 02:49:29;;;;;;;100.95;22.08;;;;;;;;;;5072896;28;20216;-74
2022/12/19 02:51:56;;;;;;;93.80;22.55;;;;;;;;;;5073366;28;20225;-73
2022/12/19 02:54:23;;;;;;;89.28;20.55;;;;;;;;;;5073507;28;20592;-73
2022/12/19 02:56:53;;;;;;;95.43;21.45;;;;;;;;;;5073722;28;20202;-72
2022/12/19 02:59:29;;;;;;;90.47;20.60;;;;;;;;;;5072544;28;20681;-72
2022/12/19 03:01:58;;;;;;;98.00;24.17;;;;;;;;;;5073332;28;20231;-72
2022/12/19 03:04:30;;;;;;;94.57;22.88;;;;;;;;;;5073180;28;20635;-72
2022/12/19 03:07:01;;;;;;;92.90;21.95;;;;;;;;;;5073432;28;20215;-72
2022/12/19 03:09:34;;;;;;;100.38;22.52;;;;;;;;;;5072627;28;20201;-72
2022/12/19 03:12:03;;;;;;;97.35;22.83;;;;;;;;;;5073008;28;20225;-72
2022/12/19 03:14:31;;;;;;;86.47;20.02;;;;;;;;;;5072927;28;20731;-72
2022/12/19 03:17:03;;;;;;;98.78;23.15;;;;;;;;;;5072889;28;20201;-72
2022/12/19 03:19:32;;;;;;;96.05;22.35;;;;;;;;;;5072273;28;20205;-72
2022/12/19 03:21:59;;;;;;;94.45;23.40;;;;;;;;;;5072967;28;20232;-72
2022/12/19 03:24:27;;;;;;;96.93;23.75;;;;;;;;;;5073131;28;20212;-72
2022/12/19 03:26:56;;;;;;;85.93;21.25;;;;;;;;;;5072919;28;20592;-72
2022/12/19 03:29:26;;;;;;;89.15;19.65;;;;;;;;;;5071990;28;20204;-72
2022/12/19 03:31:54;;;;;;;95.88;22.88;;;;;;;;;;5072788;28;20222;-72
2022/12/19 03:34:24;;;;;;;92.70;22.50;;;;;;;;;;5072794;28;20232;-73
2022/12/19 03:36:55;;;;;;;91.47;21.08;;;;;;;;;;5072871;28;20208;-73
2022/12/19 03:39:24;;;;;;;90.78;21.55;;;;;;;;;;5071855;28;20205;-72
2022/12/19 03:44:37;;;;;;;93.10;20.63;;;;;;;;;;5072566;28;20215;-72
2022/12/19 03:47:06;;;;;;;87.65;20.90;;;;;;;;;;5072695;28;20205;-72
2022/12/19 03:49:33;;;;;;;98.28;23.27;;;;;;;;;;5071681;28;20206;-72
2022/12/19 03:52:07;;;;;;;90.72;22.73;;;;;;;;;;5072274;28;20227;-72
2022/12/19 03:54:38;;;;;;;92.18;23.02;;;;;;;;;;5072099;28;20223;-73
2022/12/19 03:57:08;;;;;;;96.22;22.38;;;;;;;;;;5072655;28;20695;-72
2022/12/19 03:59:36;;;;;;;89.68;22.83;;;;;;;;;;5071734;28;20209;-71
2022/12/19 04:02:04;;;;;;;101.10;22.77;;;;;;;;;;5072251;28;20699;-73
2022/12/19 04:04:34;;;;;;;91.18;22.70;;;;;;;;;;5072479;28;20204;-72
2022/12/19 04:07:03;;;;;;;92.35;21.15;;;;;;;;;;5072185;28;20209;-74
2022/12/19 04:09:31;;;;;;;95.68;23.45;;;;;;;;;;5071498;28;20209;-75
2022/12/19 04:12:00;;;;;;;93.80;22.42;;;;;;;;;;5071894;28;20225;-74
2022/12/19 04:14:29;;;;;;;93.22;20.98;;;;;;;;;;5071775;28;20247;-75
2022/12/19 04:16:57;;;;;;;91.82;20.45;;;;;;;;;;5071956;28;20669;-74
2022/12/19 04:19:27;;;;;;;92.88;22.15;;;;;;;;;;5071250;28;20208;-75
2022/12/19 04:22:00;;;;;;;95.93;22.88;;;;;;;;;;5072251;28;20229;-74
2022/12/19 04:24:35;;;;;;;91.00;21.33;;;;;;;;;;5071985;28;20205;-74
2022/12/19 04:27:03;;;;;;;96.10;22.08;;;;;;;;;;5071951;28;20200;-74
2022/12/19 04:29:32;;;;;;;94.30;21.52;;;;;;;;;;5071239;28;20202;-73
2022/12/19 04:31:59;;;;;;;91.80;21.55;;;;;;;;;;5071668;28;20233;-74
2022/12/19 04:34:26;;;;;;;91.85;21.33;;;;;;;;;;5071976;28;20225;-74
2022/12/19 04:36:53;;;;;;;97.80;24.25;;;;;;;;;;5071772;28;20204;-73
2022/12/19 04:39:20;;;;;;;97.90;23.27;;;;;;;;;;5071209;28;20201;-73
2022/12/19 04:41:49;;;;;;;93.20;21.50;;;;;;;;;;5071878;28;20593;-75
2022/12/19 04:44:16;;;;;;;90.38;22.08;;;;;;;;;;5071646;28;20296;-74
2022/12/19 04:46:43;;;;;;;91.38;21.35;;;;;;;;;;5071614;28;20244;-73
2022/12/19 04:49:10;;;;;;;94.03;22.75;;;;;;;;;;5071121;28;20208;-72
2022/12/19 04:51:37;;;;;;;92.90;19.85;;;;;;;;;;5071147;28;20229;-73
2022/12/19 04:54:04;;;;;;;91.72;21.65;;;;;;;;;;5071604;28;20317;-73
2022/12/19 04:56:32;;;;;;;93.43;20.52;;;;;;;;;;5071822;28;20209;-73
2022/12/19 04:59:00;;;;;;;91.88;21.17;;;;;;;;;;5070704;28;20209;-74
2022/12/19 05:01:27;;;;;;;90.70;21.52;;;;;;;;;;5071538;28;20597;-74
2022/12/19 05:03:54;;;;;;;94.38;21.50;;;;;;;;;;5071721;28;20197;-73
2022/12/19 05:06:22;;;;;;;94.43;23.80;;;;;;;;;;5071754;28;20584;-74
2022/12/19 05:08:49;;;;;;;91.30;21.27;;;;;;;;;;5070747;28;20214;-73
2022/12/19 05:11:17;;;;;;;90.38;21.80;;;;;;;;;;5071373;28;20236;-74
2022/12/19 05:13:44;;;;;;;90.70;21.60;;;;;;;;;;5071289;28;20227;-74
2022/12/19 05:16:14;;;;;;;93.82;21.65;;;;;;;;;;5071561;28;20205;-74
2022/12/19 05:18:41;;;;;;;87.95;21.70;;;;;;;;;;5070817;28;20213;-73
2022/12/19 05:21:09;;;;;;;91.32;19.50;;;;;;;;;;5071434;28;20235;-73
2022/12/19 05:23:37;;;;;;;90.30;22.17;;;;;;;;;;5071527;28;20210;-74
2022/12/19 05:26:05;;;;;;;93.50;21.30;;;;;;;;;;5071165;28;20217;-73
2022/12/19 05:28:33;;;;;;;96.97;22.33;;;;;;;;;;5073795;28;20205;-74
2022/12/19 05:31:04;;;;;;;86.18;20.77;;;;;;;;;;5074768;28;20217;-73
2022/12/19 05:33:32;;;;;;;89.47;21.45;;;;;;;;;;5074892;28;20233;-74
2022/12/19 05:35:59;;;;;;;97.65;23.63;;;;;;;;;;5075046;28;20205;-72
2022/12/19 05:38:26;;;;;;;86.70;19.48;;;;;;;;;;5074929;28;20209;-73
2022/12/19 05:40:54;;;;;;;96.78;22.88;;;;;;;;;;5074200;28;20225;-72
2022/12/19 05:43:21;;;;;;;95.63;21.85;;;;;;;;;;5075070;28;20201;-74
2022/12/19 05:45:48;;;;;;;90.65;20.75;;;;;;;;;;5074911;28;20696;-73
2022/12/19 05:48:15;;;;;;;93.00;21.88;;;;;;;;;;5074672;28;20216;-73
2022/12/19 05:50:48;;;;;;;86.53;22.30;;;;;;;;;;5073807;28;20230;-72
2022/12/19 05:53:15;;;;;;;93.78;23.85;;;;;;;;;;5075033;28;20248;-74
2022/12/19 05:55:42;;;;;;;93.68;22.13;;;;;;;;;;5074669;28;20225;-73
2022/12/19 05:58:09;;;;;;;93.15;22.33;;;;;;;;;;5074730;28;20231;-73
2022/12/19 06:00:36;;;;;;;87.35;20.33;;;;;;;;;;5073682;28;20225;-73
2022/12/19 06:03:04;;;;;;;89.20;21.05;;;;;;;;;;5074588;28;20259;-74
2022/12/19 06:05:31;;;;;;;92.30;20.23;;;;;;;;;;5074353;28;20207;-73
2022/12/19 06:07:59;;;;;;;96.97;23.13;;;;;;;;;;5074273;28;20213;-75
2022/12/19 06:10:26;;;;;;;97.15;23.42;;;;;;;;;;5073800;28;20237;-73
2022/12/19 06:12:54;;;;;;;94.18;22.45;;;;;;;;;;5074226;28;20299;-74
2022/12/19 06:15:21;;;;;;;91.57;19.52;;;;;;;;;;5074227;28;20227;-75
2022/12/19 06:17:48;;;;;;;95.60;22.75;;;;;;;;;;5074211;28;20206;-74
2022/12/19 06:20:15;;;;;;;90.88;22.02;;;;;;;;;;5073369;28;20224;-74
2022/12/19 06:22:42;;;;;;;93.65;23.08;;;;;;;;;;5073951;28;20217;-74
2022/12/19 06:25:17;;;;;;;87.70;21.67;;;;;;;;;;5074142;28;20213;-73
2022/12/19 06:27:45;;;;;;;94.40;20.02;;;;;;;;;;5074159;28;20275;-73
2022/12/19 06:30:13;;;;;;;89.43;20.98;;;;;;;;;;5073195;28;20233;-73
2022/12/19 06:32:41;;;;;;;88.80;20.70;;;;;;;;;;5073929;28;20239;-73
2022/12/19 06:35:08;;;;;;;88.43;21.50;;;;;;;;;;5073699;28;20705;-74
2022/12/19 06:37:35;;;;;;;91.97;21.95;;;;;;;;;;5073722;28;20217;-73
2022/12/19 06:40:02;;;;;;;94.82;22.35;;;;;;;;;;5073040;28;20242;-73
2022/12/19 06:42:30;;;;;;;90.00;20.52;;;;;;;;;;5073839;28;20205;-73
2022/12/19 06:44:57;;;;;;;96.95;21.80;;;;;;;;;;5073621;28;20221;-73
2022/12/19 06:47:25;;;;;;;94.93;22.55;;;;;;;;;;5073477;28;20236;-73
2022/12/19 06:49:52;;;;;;;94.00;21.80;;;;;;;;;;5072960;28;20205;-73
2022/12/19 06:52:19;;;;;;;95.65;22.33;;;;;;;;;;5073663;28;20204;-73
2022/12/19 06:54:46;;;;;;;90.47;21.55;;;;;;;;;;5069746;28;20254;-76
2022/12/19 06:57:13;;;;;;;87.63;20.75;;;;;;;;;;5072983;28;20201;-75
2022/12/19 06:59:42;;;;;;;100.20;25.50;;;;;;;;;;5070843;28;20442;-73
2022/12/19 07:02:14;;;;;;;93.57;22.48;;;;;;;;;;5071117;28;20223;-73
2022/12/19 07:04:42;;;;;;;96.40;27.60;;;;;;;;;;5051004;28;20424;-74
2022/12/19 07:07:09;;;;;;;93.75;24.33;;;;;;;;;;5052807;28;20206;-76
2022/12/19 07:09:36;;;;;;;90.47;21.15;;;;;;;;;;5052235;28;20210;-76
2022/12/19 07:12:04;;;;;;;89.15;22.10;;;;;;;;;;5052758;28;20212;-76
2022/12/19 07:14:31;;;;;;;86.40;20.00;;;;;;;;;;5052369;28;20229;-76
2022/12/19 07:17:01;;;;;;;90.15;21.42;;;;;;;;;;5062774;28;20213;-75
2022/12/19 07:19:29;;;;;;;91.60;21.48;;;;;;;;;;5072108;28;20205;-75
2022/12/19 07:21:56;;;;;;;95.20;21.25;;;;;;;;;;5072258;28;20739;-76
2022/12/19 07:24:23;;;;;;;89.40;19.73;;;;;;;;;;5073027;28;20202;-74
2022/12/19 07:26:51;;;;;;;88.57;19.58;;;;;;;;;;5073186;28;20216;-73
2022/12/19 07:29:18;;;;;;;93.13;22.55;;;;;;;;;;5071811;28;20205;-74
2022/12/19 07:31:45;;;;;;;93.00;21.48;;;;;;;;;;5072560;28;20736;-74
2022/12/19 07:34:13;;;;;;;92.57;21.60;;;;;;;;;;5072561;28;20207;-74
2022/12/19 07:36:40;;;;;;;95.60;20.90;;;;;;;;;;5072576;28;20377;-75
2022/12/19 07:39:07;;;;;;;87.75;19.98;;;;;;;;;;5071733;28;20209;-75
2022/12/19 07:41:36;;;;;;;91.03;22.25;;;;;;;;;;5069107;28;20233;-75
2022/12/19 07:44:03;;;;;;;90.43;21.25;;;;;;;;;;5072437;28;20214;-74
2022/12/19 07:46:31;;;;;;;95.22;21.83;;;;;;;;;;5072682;28;20198;-75
2022/12/19 07:49:01;;;;;;;96.45;21.45;;;;;;;;;;5071570;28;20209;-75
2022/12/19 07:51:29;;;;;;;92.43;21.23;;;;;;;;;;5071506;28;20221;-75
2022/12/19 07:53:56;;;;;;;90.78;20.38;;;;;;;;;;5072213;28;20580;-75
2022/12/19 07:56:23;;;;;;;87.50;20.05;;;;;;;;;;5072250;28;20237;-74
2022/12/19 07:58:51;;;;;;;91.07;21.55;;;;;;;;;;5071212;28;20212;-74
2022/12/19 08:01:19;;;;;;;93.65;21.50;;;;;;;;;;5071760;28;20264;-75
2022/12/19 08:03:46;;;;;;;93.20;22.58;;;;;;;;;;5071815;28;20205;-74
2022/12/19 08:06:14;;;;;;;86.85;20.27;;;;;;;;;;5072157;28;20205;-74
2022/12/19 08:08:42;;;;;;;91.80;21.48;;;;;;;;;;5071056;28;20206;-74
2022/12/19 08:11:10;;;;;;;90.35;21.40;;;;;;;;;;5069699;28;20228;-72
2022/12/19 08:13:38;;;;;;;88.07;20.38;;;;;;;;;;5071501;28;20210;-74
2022/12/19 08:16:05;;;;;;;88.65;20.27;;;;;;;;;;5071886;28;20612;-73
2022/12/19 08:18:33;;;;;;;90.10;20.58;;;;;;;;;;5071170;28;20218;-74
2022/12/19 08:21:00;;;;;;;90.10;21.60;;;;;;;;;;5071329;28;20222;-73
2022/12/19 08:23:27;;;;;;;87.15;19.38;;;;;;;;;;5071274;28;20242;-74
2022/12/19 08:26:02;;;;;;;88.72;19.67;;;;;;;;;;5071363;28;20212;-72
2022/12/19 08:28:30;;;;;;;91.43;19.35;;;;;;;;;;5071350;28;20589;-71
2022/12/19 08:30:57;;;;;;;88.82;21.98;;;;;;;;;;5071455;28;20228;-73
2022/12/19 08:33:24;;;;;;;85.60;19.52;;;;;;;;;;5071594;28;20208;-73
2022/12/19 08:35:51;;;;;;;90.55;23.52;;;;;;;;;;5071285;28;20567;-73
2022/12/19 08:38:18;;;;;;;87.65;20.15;;;;;;;;;;5071721;28;20204;-73
2022/12/19 08:40:51;;;;;;;89.22;21.25;;;;;;;;;;5070494;28;20226;-73
2022/12/19 08:43:20;;;;;;;90.55;20.63;;;;;;;;;;5067470;28;20578;-72
2022/12/19 08:45:48;;;;;;;85.75;21.45;;;;;;;;;;5071655;28;20207;-73
2022/12/19 08:48:16;;;;;;;93.80;24.15;;;;;;;;;;5070922;28;20216;-73
2022/12/19 08:50:49;;;;;;;85.03;20.25;;;;;;;;;;5070908;28;20226;-72
2022/12/19 08:53:16;;;;;;;94.65;24.75;;;;;;;;;;5071148;28;20671;-73
2022/12/19 08:55:43;;;;;;;89.78;20.88;;;;;;;;;;5071337;28;20223;-73
2022/12/19 08:58:10;;;;;;;88.60;21.95;;;;;;;;;;5071185;28;20205;-73
2022/12/19 09:00:39;;;;;;;86.97;20.73;;;;;;;;;;5070368;28;20743;-72
2022/12/19 09:03:06;;;;;;;84.80;19.42;;;;;;;;;;5074768;28;20216;-73
2022/12/19 09:05:33;;;;;;;86.32;19.70;;;;;;;;;;5075330;28;20209;-73
2022/12/19 09:08:00;;;;;;;95.47;23.23;;;;;;;;;;5075109;28;20208;-73
2022/12/19 09:10:27;;;;;;;88.32;20.67;;;;;;;;;;5074509;28;20234;-73
2022/12/19 09:12:54;;;;;;;92.32;21.15;;;;;;;;;;5075138;28;20202;-72
2022/12/19 09:15:21;;;;;;;86.55;20.30;;;;;;;;;;5058226;28;20250;-73
2022/12/19 09:17:50;;;;;;;85.18;19.38;;;;;;;;;;5055286;28;20578;-73
2022/12/19 09:20:17;;;;;;;88.53;20.15;;;;;;;;;;5054476;28;20228;-72
2022/12/19 09:22:44;;;;;;;90.35;23.70;;;;;;;;;;5054644;28;20215;-72
2022/12/19 09:25:11;;;;;;;84.60;19.98;;;;;;;;;;5054656;28;20298;-72
2022/12/19 09:27:38;;;;;;;93.82;21.38;;;;;;;;;;5054771;28;20299;-72
2022/12/19 09:30:06;;;;;;;83.80;20.13;;;;;;;;;;5054017;28;20228;-73
2022/12/19 09:32:33;;;;;;;87.57;20.40;;;;;;;;;;5054808;28;20217;-73
2022/12/19 09:35:01;;;;;;;88.30;20.67;;;;;;;;;;5054358;28;20205;-72
2022/12/19 09:37:28;;;;;;;82.90;19.85;;;;;;;;;;5054223;28;20586;-72
2022/12/19 09:39:56;;;;;;;89.35;21.08;;;;;;;;;;5053710;28;20212;-72
2022/12/19 09:42:27;;;;;;;85.97;20.25;;;;;;;;;;5054460;28;20209;-72
2022/12/19 09:45:05;;;;;;;87.75;21.33;;;;;;;;;;5052962;28;20209;-72
2022/12/19 09:47:33;;;;;;;90.30;23.00;;;;;;;;;;5054164;28;20244;-73
2022/12/19 09:50:02;;;;;;;83.95;20.95;;;;;;;;;;5053489;28;20737;-73
2022/12/19 09:52:30;;;;;;;89.75;20.83;;;;;;;;;;5054081;28;20643;-73
2022/12/19 09:54:59;;;;;;;87.97;21.60;;;;;;;;;;5054079;28;20215;-73
2022/12/19 09:57:31;;;;;;;82.88;19.13;;;;;;;;;;5054449;28;20558;-73
2022/12/19 10:00:01;;;;;;;86.18;20.85;;;;;;;;;;5053588;28;20236;-73
2022/12/19 10:02:32;;;;;;;86.30;21.35;;;;;;;;;;5054174;28;20271;-72
2022/12/19 10:05:05;;;;;;;88.18;21.10;;;;;;;;;;5053875;28;20217;-72
2022/12/19 10:07:32;;;;;;;85.93;21.55;;;;;;;;;;5053857;28;20216;-72
2022/12/19 10:09:59;;;;;;;86.60;21.08;;;;;;;;;;5053045;28;20736;-72
2022/12/19 10:12:35;;;;;;;84.78;21.35;;;;;;;;;;5053565;28;20587;-72
2022/12/19 10:15:06;;;;;;;89.00;21.58;;;;;;;;;;5053882;28;20209;-73
2022/12/19 10:17:38;;;;;;;83.65;20.70;;;;;;;;;;5054405;28;20205;-71
2022/12/19 10:20:15;;;;;;;82.38;20.00;;;;;;;;;;5052956;28;20237;-70
2022/12/19 10:22:50;;;;;;;91.05;22.48;;;;;;;;;;5054027;28;20205;-70
2022/12/19 10:25:25;;;;;;;91.63;22.23;;;;;;;;;;5053589;28;20220;-71
2022/12/19 10:27:55;;;;;;;90.63;22.83;;;;;;;;;;5053890;28;20211;-72
2022/12/19 10:30:23;;;;;;;81.75;18.75;;;;;;;;;;5097600;22;20229;-73
2022/12/19 10:32:58;;;;;;;88.68;22.23;;;;;;;;;;5034196;28;20706;-72
2022/12/19 10:35:30;;;;;;;85.32;20.02;;;;;;;;;;5033951;28;20236;-72
2022/12/19 10:38:00;;;;;;;85.75;21.15;;;;;;;;;;5033760;28;20264;-72
2022/12/19 10:40:30;;;;;;;88.43;20.87;;;;;;;;;;5033695;28;20509;-72
2022/12/19 10:42:59;;;;;;;92.88;21.35;;;;;;;;;;5033888;28;20803;-72
2022/12/19 10:45:31;;;;;;;82.20;19.90;;;;;;;;;;5033855;28;20199;-72
2022/12/19 10:47:58;;;;;;;85.10;20.60;;;;;;;;;;5033622;28;20457;-72
2022/12/19 10:50:29;;;;;;;83.60;19.67;;;;;;;;;;5033057;28;20473;-72
2022/12/19 10:52:57;;;;;;;81.13;17.93;;;;;;;;;;5033739;28;20460;-72
2022/12/19 10:55:30;;;;;;;83.63;20.07;;;;;;;;;;5033383;28;20492;-72
2022/12/19 10:57:59;;;;;;;79.90;16.43;;;;;;;;;;5033715;28;20452;-73
2022/12/19 11:00:28;;;;;;;79.93;18.43;;;;;;;;;;5032386;28;20468;-72
2022/12/19 11:03:07;;;;;;;81.90;19.60;;;;;;;;;;5033425;28;20488;-72
2022/12/19 11:05:42;;;;;;;80.90;19.47;;;;;;;;;;5033594;28;20539;-73
2022/12/19 11:08:14;;;;;;;86.40;19.97;;;;;;;;;;5033663;28;20453;-73
2022/12/19 11:10:42;;;;;;;82.47;19.20;;;;;;;;;;5032576;28;20474;-72
2022/12/19 11:13:23;;;;;;;82.33;20.27;;;;;;;;;;5033244;28;20450;-72
2022/12/19 11:15:51;;;;;;;86.23;19.87;;;;;;;;;;5033109;28;20572;-72
2022/12/19 11:18:18;;;;;;;84.07;20.07;;;;;;;;;;5032857;28;20454;-72
2022/12/19 11:21:00;;;;;;;80.07;18.73;;;;;;;;;;5032558;28;20495;-72
2022/12/19 11:23:29;;;;;;;88.37;18.87;;;;;;;;;;5033365;28;20471;-73
2022/12/19 11:25:58;;;;;;;80.90;19.40;;;;;;;;;;5033113;28;20455;-72
2022/12/19 11:28:26;;;;;;;81.60;19.03;;;;;;;;;;5033279;28;20794;-73
2022/12/19 11:30:59;;;;;;;84.50;20.30;;;;;;;;;;5032130;28;20850;-73
2022/12/19 11:33:26;;;;;;;79.37;18.67;;;;;;;;;;5032912;28;20452;-72
2022/12/19 11:35:54;;;;;;;84.67;20.97;;;;;;;;;;5051823;28;20491;-73
2022/12/19 11:38:29;;;;;;;81.20;19.90;;;;;;;;;;5052635;28;20822;-72
2022/12/19 11:40:58;;;;;;;81.97;20.10;;;;;;;;;;5052240;28;21054;-72
2022/12/19 11:43:27;;;;;;;84.20;20.10;;;;;;;;;;5052338;28;20444;-72
2022/12/19 11:45:59;;;;;;;82.87;18.73;;;;;;;;;;5052430;28;20445;-73
2022/12/19 11:48:32;;;;;;;81.00;18.63;;;;;;;;;;5052508;28;20462;-72
2022/12/19 11:51:02;;;;;;;83.87;19.57;;;;;;;;;;5037863;28;20469;-73
2022/12/19 11:53:34;;;;;;;79.10;18.33;;;;;;;;;;5032003;28;20822;-73
2022/12/19 11:56:04;;;;;;;78.60;18.47;;;;;;;;;;5032001;28;20993;-73
2022/12/19 11:58:31;;;;;;;79.07;18.00;;;;;;;;;;5037403;28;20455;-72
2022/12/19 12:01:03;;;;;;;79.63;18.13;;;;;;;;;;5051520;28;20476;-73
2022/12/19 12:03:39;;;;;;;78.20;17.37;;;;;;;;;;5051921;28;20452;-74
2022/12/19 12:06:08;;;;;;;79.50;17.67;;;;;;;;;;5051948;28;20440;-75
2022/12/19 12:08:42;;;;;;;79.87;18.33;;;;;;;;;;5051648;28;20470;-76
2022/12/19 12:11:20;;;;;;;80.80;18.47;;;;;;;;;;5051828;28;20474;-74
2022/12/19 12:13:54;;;;;;;80.77;17.90;;;;;;;;;;5051961;28;20443;-75
2022/12/19 12:16:25;;;;;;;83.10;19.67;;;;;;;;;;5051766;28;20480;-74
2022/12/19 12:18:59;;;;;;;80.37;17.40;;;;;;;;;;5050879;28;20456;-73
2022/12/19 12:21:28;;;;;;;81.37;19.10;;;;;;;;;;5051932;28;20471;-75
2022/12/19 12:24:04;;;;;;;82.80;19.43;;;;;;;;;;5051988;28;20448;-73
2022/12/19 12:26:34;;;;;;;81.47;18.07;;;;;;;;;;5051755;28;20530;-75
2022/12/19 12:29:04;;;;;;;80.33;18.90;;;;;;;;;;5050847;28;20449;-74
2022/12/19 12:31:36;;;;;;;82.97;18.57;;;;;;;;;;5051327;28;20857;-75
2022/12/19 12:34:07;;;;;;;84.17;19.20;;;;;;;;;;5051584;28;20444;-74
2022/12/19 12:36:40;;;;;;;84.67;20.40;;;;;;;;;;5051221;28;20488;-74
2022/12/19 12:39:12;;;;;;;79.30;18.03;;;;;;;;;;5050628;28;20452;-76
2022/12/19 12:42:09;;;;;;;83.87;18.60;;;;;;;;;;5051211;28;20847;-75
2022/12/19 12:44:37;;;;;;;81.40;18.70;;;;;;;;;;5051544;28;20558;-74
2022/12/19 12:47:07;;;;;;;78.60;18.47;;;;;;;;;;5051634;28;20440;-76
2022/12/19 12:49:36;;;;;;;83.07;19.93;;;;;;;;;;5050857;28;20479;-74
2022/12/19 12:52:05;;;;;;;79.40;17.90;;;;;;;;;;5051877;28;20751;-73
2022/12/19 12:54:34;;;;;;;79.73;19.93;;;;;;;;;;5051690;28;20454;-73
2022/12/19 12:57:02;;;;;;;82.10;18.30;;;;;;;;;;5051424;28;20488;-74
2022/12/19 12:59:30;;;;;;;75.70;17.50;;;;;;;;;;5050727;28;20885;-73
2022/12/19 13:01:59;;;;;;;87.20;20.03;;;;;;;;;;5051492;28;20471;-74
2022/12/19 13:04:31;;;;;;;86.10;19.50;;;;;;;;;;5051488;28;20452;-75
2022/12/19 13:07:03;;;;;;;81.90;19.20;;;;;;;;;;5051391;28;20455;-75
2022/12/19 13:09:32;;;;;;;78.67;17.53;;;;;;;;;;5050537;28;20459;-74
2022/12/19 13:14:48;;;;;;;79.40;17.50;;;;;;;;;;5051360;28;20424;-74
2022/12/19 13:17:19;;;;;;;83.77;20.07;;;;;;;;;;5050938;28;20488;-74
2022/12/19 13:19:54;;;;;;;82.37;19.63;;;;;;;;;;5050759;28;20836;-73
2022/12/19 13:22:22;;;;;;;83.17;18.97;;;;;;;;;;5051347;28;20448;-73
2022/12/19 13:24:51;;;;;;;90.97;21.50;;;;;;;;;;5051128;28;20459;-73
2022/12/19 13:27:39;;;;;;;86.27;20.93;;;;;;;;;;5051079;28;20995;-73
2022/12/19 13:30:20;;;;;;;86.83;21.13;;;;;;;;;;5044160;28;20671;-73
2022/12/19 13:33:12;;;;;;;88.90;21.33;;;;;;;;;;5051216;28;20455;-73
2022/12/19 13:35:39;;;;;;;84.27;20.73;;;;;;;;;;5031286;28;20449;-74
2022/12/19 13:38:16;;;;;;;84.87;19.77;;;;;;;;;;5050982;28;20514;-74
2022/12/19 13:40:54;;;;;;;83.17;21.00;;;;;;;;;;5050490;28;20470;-74
2022/12/19 13:46:19;;;;;;;81.37;21.10;;;;;;;;;;5048052;28;20436;-73
2022/12/19 13:48:48;;;;;;;82.80;19.90;;;;;;;;;;5052261;28;20816;-72
2022/12/19 13:51:15;;;;;;;84.97;20.35;;;;;;;;;;5054668;28;20471;-73
2022/12/19 13:53:42;;;;;;;90.43;22.50;;;;;;;;;;5054462;28;20578;-73
2022/12/19 13:56:13;;;;;;;87.93;21.67;;;;;;;;;;5054426;28;20454;-73
2022/12/19 13:58:45;;;;;;;83.47;21.63;;;;;;;;;;5053704;28;20936;-73
2022/12/19 14:01:17;;;;;;;91.53;22.57;;;;;;;;;;5054493;28;20483;-73
2022/12/19 14:03:45;;;;;;;82.05;20.63;;;;;;;;;;5054531;28;20454;-73
2022/12/19 14:06:19;;;;;;;86.37;22.10;;;;;;;;;;5054421;28;20301;-73
2022/12/19 14:08:46;;;;;;;87.20;21.13;;;;;;;;;;5053559;28;20456;-73
2022/12/19 14:11:16;;;;;;;88.40;22.02;;;;;;;;;;5054051;28;20316;-75
2022/12/19 14:16:30;;;;;;;93.55;23.80;;;;;;;;;;5054222;28;20820;-73
2022/12/19 14:18:59;;;;;;;84.47;21.65;;;;;;;;;;5053550;28;20208;-73
2022/12/19 14:21:29;;;;;;;90.60;22.20;;;;;;;;;;5053941;28;20237;-74
2022/12/19 14:24:09;;;;;;;92.90;23.75;;;;;;;;;;5054463;28;20210;-74
2022/12/19 14:26:36;;;;;;;88.45;22.48;;;;;;;;;;5053989;28;20201;-73
2022/12/19 14:29:06;;;;;;;87.78;22.98;;;;;;;;;;5053277;28;20223;-73
2022/12/19 14:31:37;;;;;;;88.85;22.33;;;;;;;;;;5053633;28;20244;-73
2022/12/19 14:34:05;;;;;;;105.13;25.10;;;;;;;;;;5053784;28;20302;-74
2022/12/19 14:36:32;;;;;;;87.57;23.10;;;;;;;;;;5054046;28;20205;-73
2022/12/19 14:39:00;;;;;;;90.35;23.55;;;;;;;;;;5053164;28;20458;-73